Terminal Aerodrome Forecast
Issued by NWS

Home | Current Version | Previous Version | Text Only | Print | Product List | Glossary On
Versions: 1 2 3 4 5 6 7 8 9 10 11 12 13 14 15 16 17 18 19 20 21 22 23
000
FTUS42 KTBW 262300
TAFLAL
TAF
KLAL 262340Z 2700/2724 00000KT P6SM FEW120
     FM271600 31012KT P6SM FEW250
      AMD NOT SKED 2703/2712=

USA.gov is the U.S. government's official web portal to all federal, state and local government web resources and services.